Portada
METAR-TAF:

METAR-TAF

Aeroports :

Turaif, Aràbia Saudita

latitud: 31-41N, longitud: 038-44E, altitud: 813 m

Observació

L'informe es va fer fa 1 hora i 1 minuts, a les 20:00 UTC
Vent 11 kt del Est
Temperatura 11°C
Humitat 94%
Pressió 1019 hPa
Visibilitat 10 km o més
Cel ennuvolat a una alçada de 4000 ft

METAR: OETR 042000Z 08011KT 9999 BKN040 11/10 Q1019 NOSIG

Hora: 00:01 (21:01 UTC)

Pronòstic

L'informe es va fer fa 10 hores i 1 minuts, a les 11:00 UTC
Pronòstic vàlid del 04 a les 12 UTC al 05 a les 18 UTC
Vent 15 kt del Est/Sud-Est
Visibilitat 10 km o més
Núvols disperses a una alçada de 4000 ft
Evolucionant progressivament
l' 04 a les 18 UTC al 04 a les 20 UTC
Vent 5 kt del Est
Temporalment
l' 04 a les 20 UTC al 05 a les 06 UTC
Visibilitat: 3000 m
boirina
Probabilitat 30%
l' 05 a les 02 UTC al 05 a les 05 UTC
Visibilitat: 0800 m
boira

TAF: OETR 041100Z 0412/0518 11015KT 9999 SCT040 BECMG 0418/0420 10005KT TEMPO 0420/0506 3000 BR PROB30 0502/0505 0800 FG

Observacions i pronòstics meteorològics de més de 4000 aeroports (METAR i TAF).

Les estacions disponibles són els punts grocs i vermells al mapa.

Posi el ratolí al punt desitjat per veure el nom de l'estació.

Feu clic per veure les observacions i els pronòstics meteorològics.

Per canviar el mapa: feu clic els botons verds amb una creu de color negre per apropar; al botó verd amb un guió per allunyar la imatge; o en les fletxes verdes per a mapes adjacents.


METAR-TAF: